sensor_id;sensor_type;location;lat;lon;timestamp;P1;durP1;ratioP1;P2;durP2;ratioP2
52918;SDS011;38793;52.690;6.812;2022-10-18T00:00:31;65.67;;;37.90;;
52918;SDS011;38793;52.690;6.812;2022-10-18T00:02:57;63.80;;;39.17;;
52918;SDS011;38793;52.690;6.812;2022-10-18T00:05:22;104.82;;;42.83;;
52918;SDS011;38793;52.690;6.812;2022-10-18T00:07:48;84.53;;;44.10;;
52918;SDS011;38793;52.690;6.812;2022-10-18T00:10:14;389.88;;;76.40;;
52918;SDS011;38793;52.690;6.812;2022-10-18T00:12:39;237.45;;;56.58;;
52918;SDS011;38793;52.690;6.812;2022-10-18T00:15:05;151.70;;;49.75;;
52918;SDS011;38793;52.690;6.812;2022-10-18T00:17:35;315.55;;;55.90;;
52918;SDS011;38793;52.690;6.812;2022-10-18T00:20:02;138.55;;;46.08;;
52918;SDS011;38793;52.690;6.812;2022-10-18T00:22:29;165.60;;;52.15;;
52918;SDS011;38793;52.690;6.812;2022-10-18T00:24:55;73.03;;;38.60;;
52918;SDS011;38793;52.690;6.812;2022-10-18T00:27:20;249.05;;;42.70;;
52918;SDS011;38793;52.690;6.812;2022-10-18T00:29:46;90.95;;;38.63;;
52918;SDS011;38793;52.690;6.812;2022-10-18T00:32:11;179.20;;;41.85;;
52918;SDS011;38793;52.690;6.812;2022-10-18T00:34:37;321.00;;;40.70;;
52918;SDS011;38793;52.690;6.812;2022-10-18T00:37:04;414.02;;;47.47;;
52918;SDS011;38793;52.690;6.812;2022-10-18T00:41:56;260.90;;;41.15;;
52918;SDS011;38793;52.690;6.812;2022-10-18T00:46:50;251.63;;;33.72;;
52918;SDS011;38793;52.690;6.812;2022-10-18T00:49:24;499.73;;;50.05;;
52918;SDS011;38793;52.690;6.812;2022-10-18T00:52:00;143.88;;;32.38;;
52918;SDS011;38793;52.690;6.812;2022-10-18T00:54:33;70.10;;;30.85;;
52918;SDS011;38793;52.690;6.812;2022-10-18T00:57:02;64.63;;;31.88;;
52918;SDS011;38793;52.690;6.812;2022-10-18T00:59:30;36.55;;;28.45;;
52918;SDS011;38793;52.690;6.812;2022-10-18T01:01:55;40.20;;;29.90;;
52918;SDS011;38793;52.690;6.812;2022-10-18T01:04:21;40.23;;;29.63;;
52918;SDS011;38793;52.690;6.812;2022-10-18T01:06:53;40.20;;;30.13;;
52918;SDS011;38793;52.690;6.812;2022-10-18T01:09:37;44.08;;;31.15;;
52918;SDS011;38793;52.690;6.812;2022-10-18T01:12:19;51.30;;;30.15;;
52918;SDS011;38793;52.690;6.812;2022-10-18T01:15:10;91.07;;;27.35;;
52918;SDS011;38793;52.690;6.812;2022-10-18T01:20:30;31.85;;;24.80;;
52918;SDS011;38793;52.690;6.812;2022-10-18T01:25:39;28.45;;;23.45;;
52918;SDS011;38793;52.690;6.812;2022-10-18T01:31:15;32.65;;;21.60;;
52918;SDS011;38793;52.690;6.812;2022-10-18T01:33:52;26.50;;;21.45;;
52918;SDS011;38793;52.690;6.812;2022-10-18T01:36:30;22.67;;;18.40;;
52918;SDS011;38793;52.690;6.812;2022-10-18T01:39:03;21.02;;;18.67;;
52918;SDS011;38793;52.690;6.812;2022-10-18T01:41:33;24.75;;;20.10;;
52918;SDS011;38793;52.690;6.812;2022-10-18T01:44:02;19.05;;;15.65;;
52918;SDS011;38793;52.690;6.812;2022-10-18T01:46:31;31.58;;;24.65;;
52918;SDS011;38793;52.690;6.812;2022-10-18T01:48:57;41.65;;;26.23;;
52918;SDS011;38793;52.690;6.812;2022-10-18T01:51:28;36.20;;;25.73;;
52918;SDS011;38793;52.690;6.812;2022-10-18T01:53:55;234.07;;;37.53;;
52918;SDS011;38793;52.690;6.812;2022-10-18T01:59:35;48.83;;;31.15;;
52918;SDS011;38793;52.690;6.812;2022-10-18T02:02:11;105.28;;;34.53;;
52918;SDS011;38793;52.690;6.812;2022-10-18T02:04:45;64.63;;;27.85;;
52918;SDS011;38793;52.690;6.812;2022-10-18T02:10:15;177.40;;;33.38;;
52918;SDS011;38793;52.690;6.812;2022-10-18T02:12:46;73.93;;;29.25;;
52918;SDS011;38793;52.690;6.812;2022-10-18T02:15:16;109.95;;;28.00;;
52918;SDS011;38793;52.690;6.812;2022-10-18T02:17:45;407.45;;;45.05;;
52918;SDS011;38793;52.690;6.812;2022-10-18T02:20:11;515.45;;;58.90;;
52918;SDS011;38793;52.690;6.812;2022-10-18T02:22:40;268.42;;;41.35;;
52918;SDS011;38793;52.690;6.812;2022-10-18T02:25:10;510.48;;;65.05;;
52918;SDS011;38793;52.690;6.812;2022-10-18T02:27:40;280.90;;;40.92;;
52918;SDS011;38793;52.690;6.812;2022-10-18T02:30:06;78.10;;;34.13;;
52918;SDS011;38793;52.690;6.812;2022-10-18T02:32:34;95.80;;;35.65;;
52918;SDS011;38793;52.690;6.812;2022-10-18T02:35:18;201.40;;;38.72;;
52918;SDS011;38793;52.690;6.812;2022-10-18T02:37:49;344.55;;;55.33;;
52918;SDS011;38793;52.690;6.812;2022-10-18T02:40:16;79.30;;;34.10;;
52918;SDS011;38793;52.690;6.812;2022-10-18T02:42:48;120.05;;;36.97;;
52918;SDS011;38793;52.690;6.812;2022-10-18T02:45:17;109.63;;;34.00;;
52918;SDS011;38793;52.690;6.812;2022-10-18T02:47:43;70.80;;;34.05;;
52918;SDS011;38793;52.690;6.812;2022-10-18T02:50:08;89.45;;;30.33;;
52918;SDS011;38793;52.690;6.812;2022-10-18T02:52:34;96.00;;;36.00;;
52918;SDS011;38793;52.690;6.812;2022-10-18T02:54:59;109.15;;;33.00;;
52918;SDS011;38793;52.690;6.812;2022-10-18T02:57:25;60.03;;;33.95;;
52918;SDS011;38793;52.690;6.812;2022-10-18T02:59:51;65.20;;;32.15;;
52918;SDS011;38793;52.690;6.812;2022-10-18T03:02:17;73.40;;;33.20;;
52918;SDS011;38793;52.690;6.812;2022-10-18T03:04:43;94.05;;;32.33;;
52918;SDS011;38793;52.690;6.812;2022-10-18T03:07:08;71.18;;;32.70;;
52918;SDS011;38793;52.690;6.812;2022-10-18T03:09:34;45.60;;;29.48;;
52918;SDS011;38793;52.690;6.812;2022-10-18T03:11:59;67.05;;;30.55;;
52918;SDS011;38793;52.690;6.812;2022-10-18T03:14:25;41.22;;;27.77;;
52918;SDS011;38793;52.690;6.812;2022-10-18T03:16:50;78.72;;;29.05;;
52918;SDS011;38793;52.690;6.812;2022-10-18T03:19:16;39.70;;;27.45;;
52918;SDS011;38793;52.690;6.812;2022-10-18T03:21:41;38.43;;;26.17;;
52918;SDS011;38793;52.690;6.812;2022-10-18T03:24:07;39.45;;;28.58;;
52918;SDS011;38793;52.690;6.812;2022-10-18T03:26:32;46.80;;;28.33;;
52918;SDS011;38793;52.690;6.812;2022-10-18T03:28:58;96.88;;;29.75;;
52918;SDS011;38793;52.690;6.812;2022-10-18T03:31:24;59.92;;;28.58;;
52918;SDS011;38793;52.690;6.812;2022-10-18T03:33:49;85.55;;;28.33;;
52918;SDS011;38793;52.690;6.812;2022-10-18T03:36:15;49.72;;;28.13;;
52918;SDS011;38793;52.690;6.812;2022-10-18T03:38:40;45.67;;;27.92;;
52918;SDS011;38793;52.690;6.812;2022-10-18T03:41:06;153.55;;;31.63;;
52918;SDS011;38793;52.690;6.812;2022-10-18T03:43:32;112.22;;;30.40;;
52918;SDS011;38793;52.690;6.812;2022-10-18T03:45:58;173.70;;;31.33;;
52918;SDS011;38793;52.690;6.812;2022-10-18T03:48:24;217.05;;;31.85;;
52918;SDS011;38793;52.690;6.812;2022-10-18T03:50:49;467.83;;;50.35;;
52918;SDS011;38793;52.690;6.812;2022-10-18T03:53:15;231.27;;;33.67;;
52918;SDS011;38793;52.690;6.812;2022-10-18T03:55:41;180.52;;;30.90;;
52918;SDS011;38793;52.690;6.812;2022-10-18T03:58:06;102.50;;;28.10;;
52918;SDS011;38793;52.690;6.812;2022-10-18T04:00:32;55.95;;;26.75;;
52918;SDS011;38793;52.690;6.812;2022-10-18T04:02:57;141.00;;;29.98;;
52918;SDS011;38793;52.690;6.812;2022-10-18T04:05:23;75.63;;;27.15;;
52918;SDS011;38793;52.690;6.812;2022-10-18T04:07:51;55.85;;;23.08;;
52918;SDS011;38793;52.690;6.812;2022-10-18T04:10:17;217.97;;;31.03;;
52918;SDS011;38793;52.690;6.812;2022-10-18T04:12:42;70.82;;;22.98;;
52918;SDS011;38793;52.690;6.812;2022-10-18T04:15:08;304.55;;;29.75;;
52918;SDS011;38793;52.690;6.812;2022-10-18T04:17:34;385.42;;;42.85;;
52918;SDS011;38793;52.690;6.812;2022-10-18T04:20:00;192.27;;;26.88;;
52918;SDS011;38793;52.690;6.812;2022-10-18T04:22:25;140.65;;;25.98;;
52918;SDS011;38793;52.690;6.812;2022-10-18T04:24:51;73.53;;;23.13;;
52918;SDS011;38793;52.690;6.812;2022-10-18T04:27:20;76.35;;;23.73;;
52918;SDS011;38793;52.690;6.812;2022-10-18T04:29:46;100.03;;;24.98;;
52918;SDS011;38793;52.690;6.812;2022-10-18T04:32:12;84.17;;;23.77;;
52918;SDS011;38793;52.690;6.812;2022-10-18T04:34:37;122.05;;;27.13;;
52918;SDS011;38793;52.690;6.812;2022-10-18T04:37:03;164.55;;;31.65;;
52918;SDS011;38793;52.690;6.812;2022-10-18T04:39:28;173.43;;;28.60;;
52918;SDS011;38793;52.690;6.812;2022-10-18T04:41:54;46.08;;;21.92;;
52918;SDS011;38793;52.690;6.812;2022-10-18T04:44:20;44.00;;;20.90;;
52918;SDS011;38793;52.690;6.812;2022-10-18T04:46:45;175.45;;;31.10;;
52918;SDS011;38793;52.690;6.812;2022-10-18T04:49:11;44.42;;;23.63;;
52918;SDS011;38793;52.690;6.812;2022-10-18T04:51:36;56.15;;;24.17;;
52918;SDS011;38793;52.690;6.812;2022-10-18T04:54:02;43.58;;;23.08;;
52918;SDS011;38793;52.690;6.812;2022-10-18T04:56:28;111.47;;;25.10;;
52918;SDS011;38793;52.690;6.812;2022-10-18T04:58:53;89.13;;;26.35;;
52918;SDS011;38793;52.690;6.812;2022-10-18T05:01:19;95.63;;;26.83;;
52918;SDS011;38793;52.690;6.812;2022-10-18T05:03:44;69.00;;;24.13;;
52918;SDS011;38793;52.690;6.812;2022-10-18T05:06:10;50.90;;;23.93;;
52918;SDS011;38793;52.690;6.812;2022-10-18T05:08:35;69.05;;;23.42;;
52918;SDS011;38793;52.690;6.812;2022-10-18T05:11:01;40.35;;;23.65;;
52918;SDS011;38793;52.690;6.812;2022-10-18T05:13:28;67.57;;;25.23;;
52918;SDS011;38793;52.690;6.812;2022-10-18T05:15:54;127.65;;;28.23;;
52918;SDS011;38793;52.690;6.812;2022-10-18T05:18:19;143.80;;;26.60;;
52918;SDS011;38793;52.690;6.812;2022-10-18T05:20:45;102.50;;;24.70;;
52918;SDS011;38793;52.690;6.812;2022-10-18T05:23:11;77.47;;;23.42;;
52918;SDS011;38793;52.690;6.812;2022-10-18T05:25:37;106.97;;;23.40;;
52918;SDS011;38793;52.690;6.812;2022-10-18T05:28:06;57.15;;;22.48;;
52918;SDS011;38793;52.690;6.812;2022-10-18T05:30:32;71.60;;;23.25;;
52918;SDS011;38793;52.690;6.812;2022-10-18T05:32:58;95.85;;;22.02;;
52918;SDS011;38793;52.690;6.812;2022-10-18T05:35:23;76.55;;;22.25;;
52918;SDS011;38793;52.690;6.812;2022-10-18T05:37:49;62.25;;;20.70;;
52918;SDS011;38793;52.690;6.812;2022-10-18T05:40:14;116.57;;;22.50;;
52918;SDS011;38793;52.690;6.812;2022-10-18T05:42:40;224.90;;;24.95;;
52918;SDS011;38793;52.690;6.812;2022-10-18T05:45:06;135.63;;;22.60;;
52918;SDS011;38793;52.690;6.812;2022-10-18T05:47:32;162.50;;;21.88;;
52918;SDS011;38793;52.690;6.812;2022-10-18T05:49:57;155.67;;;21.00;;
52918;SDS011;38793;52.690;6.812;2022-10-18T05:52:23;122.27;;;17.67;;
52918;SDS011;38793;52.690;6.812;2022-10-18T05:54:48;85.07;;;18.30;;
52918;SDS011;38793;52.690;6.812;2022-10-18T05:57:14;131.70;;;20.40;;
52918;SDS011;38793;52.690;6.812;2022-10-18T05:59:39;153.52;;;20.38;;
52918;SDS011;38793;52.690;6.812;2022-10-18T06:02:05;130.93;;;19.85;;
52918;SDS011;38793;52.690;6.812;2022-10-18T06:04:30;50.58;;;16.58;;
52918;SDS011;38793;52.690;6.812;2022-10-18T06:06:56;107.63;;;17.45;;
52918;SDS011;38793;52.690;6.812;2022-10-18T06:09:22;65.85;;;18.70;;
52918;SDS011;38793;52.690;6.812;2022-10-18T06:11:47;67.47;;;17.02;;
52918;SDS011;38793;52.690;6.812;2022-10-18T06:14:13;51.03;;;17.42;;
52918;SDS011;38793;52.690;6.812;2022-10-18T06:16:38;58.88;;;16.75;;
52918;SDS011;38793;52.690;6.812;2022-10-18T06:19:04;106.33;;;20.33;;
52918;SDS011;38793;52.690;6.812;2022-10-18T06:21:29;69.10;;;16.80;;
52918;SDS011;38793;52.690;6.812;2022-10-18T06:23:56;80.87;;;17.87;;
52918;SDS011;38793;52.690;6.812;2022-10-18T06:26:22;74.38;;;16.63;;
52918;SDS011;38793;52.690;6.812;2022-10-18T06:28:48;25.65;;;14.80;;
52918;SDS011;38793;52.690;6.812;2022-10-18T06:31:14;39.72;;;17.30;;
52918;SDS011;38793;52.690;6.812;2022-10-18T06:33:40;43.95;;;15.27;;
52918;SDS011;38793;52.690;6.812;2022-10-18T06:36:07;31.08;;;15.02;;
52918;SDS011;38793;52.690;6.812;2022-10-18T06:38:34;18.23;;;13.02;;
52918;SDS011;38793;52.690;6.812;2022-10-18T06:41:00;43.35;;;14.73;;
52918;SDS011;38793;52.690;6.812;2022-10-18T06:43:25;26.65;;;13.88;;
52918;SDS011;38793;52.690;6.812;2022-10-18T06:45:51;118.38;;;17.33;;
52918;SDS011;38793;52.690;6.812;2022-10-18T06:48:18;40.05;;;13.98;;
52918;SDS011;38793;52.690;6.812;2022-10-18T06:50:57;26.73;;;14.02;;
52918;SDS011;38793;52.690;6.812;2022-10-18T06:53:25;52.85;;;14.77;;
52918;SDS011;38793;52.690;6.812;2022-10-18T06:55:51;59.40;;;14.90;;
52918;SDS011;38793;52.690;6.812;2022-10-18T06:58:22;53.35;;;12.73;;
52918;SDS011;38793;52.690;6.812;2022-10-18T07:00:48;124.97;;;16.43;;
52918;SDS011;38793;52.690;6.812;2022-10-18T07:03:13;119.93;;;15.77;;
52918;SDS011;38793;52.690;6.812;2022-10-18T07:05:39;111.03;;;15.80;;
52918;SDS011;38793;52.690;6.812;2022-10-18T07:08:04;100.10;;;15.00;;
52918;SDS011;38793;52.690;6.812;2022-10-18T07:10:30;21.27;;;11.57;;
52918;SDS011;38793;52.690;6.812;2022-10-18T07:12:55;120.50;;;15.80;;
52918;SDS011;38793;52.690;6.812;2022-10-18T07:15:21;145.33;;;15.00;;
52918;SDS011;38793;52.690;6.812;2022-10-18T07:17:48;62.20;;;12.77;;
52918;SDS011;38793;52.690;6.812;2022-10-18T07:20:14;46.72;;;12.27;;
52918;SDS011;38793;52.690;6.812;2022-10-18T07:22:40;78.68;;;12.57;;
52918;SDS011;38793;52.690;6.812;2022-10-18T07:25:05;115.82;;;14.02;;
52918;SDS011;38793;52.690;6.812;2022-10-18T07:27:35;92.45;;;12.55;;
52918;SDS011;38793;52.690;6.812;2022-10-18T07:30:05;77.03;;;13.00;;
52918;SDS011;38793;52.690;6.812;2022-10-18T07:32:33;79.18;;;12.70;;
52918;SDS011;38793;52.690;6.812;2022-10-18T07:34:58;89.37;;;13.47;;
52918;SDS011;38793;52.690;6.812;2022-10-18T07:37:24;72.97;;;13.13;;
52918;SDS011;38793;52.690;6.812;2022-10-18T07:39:49;84.07;;;12.77;;
52918;SDS011;38793;52.690;6.812;2022-10-18T07:42:15;20.50;;;8.27;;
52918;SDS011;38793;52.690;6.812;2022-10-18T07:44:41;90.38;;;12.07;;
52918;SDS011;38793;52.690;6.812;2022-10-18T07:47:06;93.35;;;11.77;;
52918;SDS011;38793;52.690;6.812;2022-10-18T07:49:32;15.40;;;8.70;;
52918;SDS011;38793;52.690;6.812;2022-10-18T07:51:57;159.73;;;13.87;;
52918;SDS011;38793;52.690;6.812;2022-10-18T07:54:23;156.15;;;14.73;;
52918;SDS011;38793;52.690;6.812;2022-10-18T07:56:48;80.67;;;11.97;;
52918;SDS011;38793;52.690;6.812;2022-10-18T07:59:14;41.97;;;10.97;;
52918;SDS011;38793;52.690;6.812;2022-10-18T08:01:39;80.32;;;14.50;;
52918;SDS011;38793;52.690;6.812;2022-10-18T08:04:05;72.40;;;12.45;;
52918;SDS011;38793;52.690;6.812;2022-10-18T08:06:30;106.30;;;14.02;;
52918;SDS011;38793;52.690;6.812;2022-10-18T08:08:56;37.50;;;11.98;;
52918;SDS011;38793;52.690;6.812;2022-10-18T08:11:22;101.60;;;15.77;;
52918;SDS011;38793;52.690;6.812;2022-10-18T08:13:49;153.57;;;16.85;;
52918;SDS011;38793;52.690;6.812;2022-10-18T08:16:19;130.05;;;18.42;;
52918;SDS011;38793;52.690;6.812;2022-10-18T08:18:46;106.70;;;12.95;;
52918;SDS011;38793;52.690;6.812;2022-10-18T08:21:13;123.35;;;16.40;;
52918;SDS011;38793;52.690;6.812;2022-10-18T08:23:40;160.85;;;18.23;;
52918;SDS011;38793;52.690;6.812;2022-10-18T08:26:07;133.38;;;15.93;;
52918;SDS011;38793;52.690;6.812;2022-10-18T08:28:34;121.95;;;16.73;;
52918;SDS011;38793;52.690;6.812;2022-10-18T08:31:07;106.72;;;17.33;;
52918;SDS011;38793;52.690;6.812;2022-10-18T08:33:36;122.03;;;18.10;;
52918;SDS011;38793;52.690;6.812;2022-10-18T08:36:03;146.02;;;17.23;;
52918;SDS011;38793;52.690;6.812;2022-10-18T08:38:31;64.20;;;14.85;;
52918;SDS011;38793;52.690;6.812;2022-10-18T08:40:59;130.15;;;18.98;;
52918;SDS011;38793;52.690;6.812;2022-10-18T08:43:39;83.03;;;15.10;;
52918;SDS011;38793;52.690;6.812;2022-10-18T08:46:10;54.30;;;17.38;;
52918;SDS011;38793;52.690;6.812;2022-10-18T08:48:41;35.88;;;14.95;;
52918;SDS011;38793;52.690;6.812;2022-10-18T08:51:20;25.05;;;14.13;;
52918;SDS011;38793;52.690;6.812;2022-10-18T08:56:42;21.83;;;12.93;;
52918;SDS011;38793;52.690;6.812;2022-10-18T08:59:11;44.65;;;14.20;;
52918;SDS011;38793;52.690;6.812;2022-10-18T09:04:51;19.98;;;12.07;;
52918;SDS011;38793;52.690;6.812;2022-10-18T09:07:32;23.30;;;11.85;;
52918;SDS011;38793;52.690;6.812;2022-10-18T09:10:17;17.67;;;13.73;;
52918;SDS011;38793;52.690;6.812;2022-10-18T09:13:01;18.77;;;13.65;;
52918;SDS011;38793;52.690;6.812;2022-10-18T09:15:44;18.27;;;14.00;;
52918;SDS011;38793;52.690;6.812;2022-10-18T09:18:35;18.83;;;15.02;;
52918;SDS011;38793;52.690;6.812;2022-10-18T09:21:18;16.60;;;13.63;;
52918;SDS011;38793;52.690;6.812;2022-10-18T09:24:50;22.80;;;14.38;;
52918;SDS011;38793;52.690;6.812;2022-10-18T09:26:49;15.88;;;11.73;;
52918;SDS011;38793;52.690;6.812;2022-10-18T09:29:59;17.92;;;11.73;;
52918;SDS011;38793;52.690;6.812;2022-10-18T09:32:27;11.02;;;9.73;;
52918;SDS011;38793;52.690;6.812;2022-10-18T09:35:16;15.18;;;9.65;;
52918;SDS011;38793;52.690;6.812;2022-10-18T09:37:48;14.82;;;9.45;;
52918;SDS011;38793;52.690;6.812;2022-10-18T09:40:29;15.90;;;10.35;;
52918;SDS011;38793;52.690;6.812;2022-10-18T09:43:09;12.80;;;9.32;;
52918;SDS011;38793;52.690;6.812;2022-10-18T09:45:40;9.82;;;8.77;;
52918;SDS011;38793;52.690;6.812;2022-10-18T09:48:22;11.40;;;8.55;;
52918;SDS011;38793;52.690;6.812;2022-10-18T09:50:55;10.05;;;8.27;;
52918;SDS011;38793;52.690;6.812;2022-10-18T09:56:26;13.55;;;8.80;;
52918;SDS011;38793;52.690;6.812;2022-10-18T09:58:55;14.48;;;9.07;;
52918;SDS011;38793;52.690;6.812;2022-10-18T10:01:22;15.02;;;8.85;;
52918;SDS011;38793;52.690;6.812;2022-10-18T10:03:50;13.73;;;9.15;;
52918;SDS011;38793;52.690;6.812;2022-10-18T10:08:48;9.60;;;6.88;;
52918;SDS011;38793;52.690;6.812;2022-10-18T10:14:08;11.32;;;6.93;;
52918;SDS011;38793;52.690;6.812;2022-10-18T10:19:22;14.05;;;6.95;;
52918;SDS011;38793;52.690;6.812;2022-10-18T10:21:52;9.95;;;6.03;;
52918;SDS011;38793;52.690;6.812;2022-10-18T10:24:23;11.65;;;7.38;;
52918;SDS011;38793;52.690;6.812;2022-10-18T10:26:59;12.75;;;7.43;;
52918;SDS011;38793;52.690;6.812;2022-10-18T10:32:14;8.98;;;6.20;;
52918;SDS011;38793;52.690;6.812;2022-10-18T10:34:41;10.85;;;6.50;;
52918;SDS011;38793;52.690;6.812;2022-10-18T10:37:27;14.05;;;6.90;;
52918;SDS011;38793;52.690;6.812;2022-10-18T10:40:03;10.73;;;5.93;;
52918;SDS011;38793;52.690;6.812;2022-10-18T10:42:55;16.90;;;6.53;;
52918;SDS011;38793;52.690;6.812;2022-10-18T10:45:22;9.15;;;5.32;;
52918;SDS011;38793;52.690;6.812;2022-10-18T10:47:49;12.88;;;5.22;;
52918;SDS011;38793;52.690;6.812;2022-10-18T10:50:24;10.68;;;5.57;;
52918;SDS011;38793;52.690;6.812;2022-10-18T10:52:52;8.15;;;4.70;;
52918;SDS011;38793;52.690;6.812;2022-10-18T10:57:46;6.80;;;4.10;;
52918;SDS011;38793;52.690;6.812;2022-10-18T11:03:20;11.02;;;5.25;;
52918;SDS011;38793;52.690;6.812;2022-10-18T11:05:56;12.05;;;5.88;;
52918;SDS011;38793;52.690;6.812;2022-10-18T11:08:25;11.98;;;4.22;;
52918;SDS011;38793;52.690;6.812;2022-10-18T11:11:12;11.02;;;3.55;;
52918;SDS011;38793;52.690;6.812;2022-10-18T11:13:48;11.82;;;2.80;;
52918;SDS011;38793;52.690;6.812;2022-10-18T11:16:46;8.60;;;2.20;;
52918;SDS011;38793;52.690;6.812;2022-10-18T11:19:28;6.93;;;1.42;;
52918;SDS011;38793;52.690;6.812;2022-10-18T11:22:04;7.68;;;1.92;;
52918;SDS011;38793;52.690;6.812;2022-10-18T11:24:35;6.93;;;2.20;;
52918;SDS011;38793;52.690;6.812;2022-10-18T11:27:13;11.48;;;2.58;;
52918;SDS011;38793;52.690;6.812;2022-10-18T11:30:03;9.18;;;2.22;;
52918;SDS011;38793;52.690;6.812;2022-10-18T11:32:43;12.55;;;2.70;;
52918;SDS011;38793;52.690;6.812;2022-10-18T11:35:29;9.70;;;2.00;;
52918;SDS011;38793;52.690;6.812;2022-10-18T11:38:13;7.20;;;2.35;;
52918;SDS011;38793;52.690;6.812;2022-10-18T11:43:23;6.50;;;1.45;;
52918;SDS011;38793;52.690;6.812;2022-10-18T11:49:00;6.55;;;1.00;;
52918;SDS011;38793;52.690;6.812;2022-10-18T11:51:39;4.88;;;1.20;;
52918;SDS011;38793;52.690;6.812;2022-10-18T11:54:24;4.18;;;0.47;;
52918;SDS011;38793;52.690;6.812;2022-10-18T11:57:15;7.43;;;0.80;;
52918;SDS011;38793;52.690;6.812;2022-10-18T12:02:39;10.00;;;1.13;;
52918;SDS011;38793;52.690;6.812;2022-10-18T12:05:15;5.03;;;1.15;;
52918;SDS011;38793;52.690;6.812;2022-10-18T12:07:44;8.32;;;0.95;;
52918;SDS011;38793;52.690;6.812;2022-10-18T12:10:33;6.80;;;0.50;;
52918;SDS011;38793;52.690;6.812;2022-10-18T12:13:02;5.82;;;0.45;;
52918;SDS011;38793;52.690;6.812;2022-10-18T12:15:32;9.55;;;1.55;;
52918;SDS011;38793;52.690;6.812;2022-10-18T12:18:03;10.18;;;0.88;;
52918;SDS011;38793;52.690;6.812;2022-10-18T12:20:31;6.97;;;0.98;;
52918;SDS011;38793;52.690;6.812;2022-10-18T12:23:14;4.30;;;0.70;;
52918;SDS011;38793;52.690;6.812;2022-10-18T12:25:54;9.50;;;0.70;;
52918;SDS011;38793;52.690;6.812;2022-10-18T12:33:47;10.40;;;0.73;;
52918;SDS011;38793;52.690;6.812;2022-10-18T12:36:23;7.78;;;0.63;;
52918;SDS011;38793;52.690;6.812;2022-10-18T12:38:57;10.90;;;0.73;;
52918;SDS011;38793;52.690;6.812;2022-10-18T12:41:26;11.95;;;1.08;;
52918;SDS011;38793;52.690;6.812;2022-10-18T12:43:55;6.18;;;0.60;;
52918;SDS011;38793;52.690;6.812;2022-10-18T12:46:23;7.38;;;0.75;;
52918;SDS011;38793;52.690;6.812;2022-10-18T12:49:10;6.63;;;0.90;;
52918;SDS011;38793;52.690;6.812;2022-10-18T12:51:39;9.30;;;1.35;;
52918;SDS011;38793;52.690;6.812;2022-10-18T12:54:24;10.73;;;1.02;;
52918;SDS011;38793;52.690;6.812;2022-10-18T12:56:53;6.57;;;0.82;;
52918;SDS011;38793;52.690;6.812;2022-10-18T13:07:10;8.20;;;0.85;;
52918;SDS011;38793;52.690;6.812;2022-10-18T13:12:46;10.25;;;0.68;;
52918;SDS011;38793;52.690;6.812;2022-10-18T13:17:48;5.45;;;0.40;;
52918;SDS011;38793;52.690;6.812;2022-10-18T13:20:20;6.05;;;0.85;;
52918;SDS011;38793;52.690;6.812;2022-10-18T13:25:31;7.32;;;0.95;;
52918;SDS011;38793;52.690;6.812;2022-10-18T13:28:24;3.25;;;0.55;;
52918;SDS011;38793;52.690;6.812;2022-10-18T13:33:54;6.35;;;0.60;;
52918;SDS011;38793;52.690;6.812;2022-10-18T13:36:40;11.57;;;0.82;;
52918;SDS011;38793;52.690;6.812;2022-10-18T13:39:14;3.08;;;0.77;;
52918;SDS011;38793;52.690;6.812;2022-10-18T13:52:00;5.28;;;0.65;;
52918;SDS011;38793;52.690;6.812;2022-10-18T14:00:02;9.32;;;1.00;;
52918;SDS011;38793;52.690;6.812;2022-10-18T14:08:27;6.40;;;1.10;;
52918;SDS011;38793;52.690;6.812;2022-10-18T14:11:04;7.55;;;0.70;;
52918;SDS011;38793;52.690;6.812;2022-10-18T14:19:10;8.10;;;0.60;;
52918;SDS011;38793;52.690;6.812;2022-10-18T14:21:42;6.55;;;0.73;;
52918;SDS011;38793;52.690;6.812;2022-10-18T14:24:16;6.10;;;1.25;;
52918;SDS011;38793;52.690;6.812;2022-10-18T14:26:46;8.80;;;1.42;;
52918;SDS011;38793;52.690;6.812;2022-10-18T14:29:15;2.80;;;0.25;;
52918;SDS011;38793;52.690;6.812;2022-10-18T14:31:48;7.70;;;1.23;;
52918;SDS011;38793;52.690;6.812;2022-10-18T14:34:16;6.75;;;0.80;;
52918;SDS011;38793;52.690;6.812;2022-10-18T14:36:42;10.18;;;0.70;;
52918;SDS011;38793;52.690;6.812;2022-10-18T14:39:18;6.55;;;1.02;;
52918;SDS011;38793;52.690;6.812;2022-10-18T14:41:50;3.13;;;0.52;;
52918;SDS011;38793;52.690;6.812;2022-10-18T14:44:18;10.70;;;0.88;;
52918;SDS011;38793;52.690;6.812;2022-10-18T14:46:59;5.65;;;0.55;;
52918;SDS011;38793;52.690;6.812;2022-10-18T14:49:27;6.82;;;0.75;;
52918;SDS011;38793;52.690;6.812;2022-10-18T14:51:54;8.00;;;1.05;;
52918;SDS011;38793;52.690;6.812;2022-10-18T14:54:23;6.32;;;0.70;;
52918;SDS011;38793;52.690;6.812;2022-10-18T14:56:50;7.55;;;0.82;;
52918;SDS011;38793;52.690;6.812;2022-10-18T14:59:19;7.13;;;0.80;;
52918;SDS011;38793;52.690;6.812;2022-10-18T15:01:51;11.90;;;0.90;;
52918;SDS011;38793;52.690;6.812;2022-10-18T15:04:19;11.05;;;0.98;;
52918;SDS011;38793;52.690;6.812;2022-10-18T15:06:45;8.02;;;0.70;;
52918;SDS011;38793;52.690;6.812;2022-10-18T15:09:12;11.18;;;0.93;;
52918;SDS011;38793;52.690;6.812;2022-10-18T15:11:44;10.20;;;0.70;;
52918;SDS011;38793;52.690;6.812;2022-10-18T15:14:14;7.75;;;0.95;;
52918;SDS011;38793;52.690;6.812;2022-10-18T15:16:42;7.13;;;1.73;;
52918;SDS011;38793;52.690;6.812;2022-10-18T15:21:53;11.43;;;1.17;;
52918;SDS011;38793;52.690;6.812;2022-10-18T15:27:22;11.02;;;0.88;;
52918;SDS011;38793;52.690;6.812;2022-10-18T15:29:54;6.45;;;0.70;;
52918;SDS011;38793;52.690;6.812;2022-10-18T15:32:23;4.57;;;0.60;;
52918;SDS011;38793;52.690;6.812;2022-10-18T15:34:51;14.63;;;2.00;;
52918;SDS011;38793;52.690;6.812;2022-10-18T15:42:45;12.20;;;1.27;;
52918;SDS011;38793;52.690;6.812;2022-10-18T15:48:00;10.27;;;1.00;;
52918;SDS011;38793;52.690;6.812;2022-10-18T15:50:44;9.10;;;1.05;;
52918;SDS011;38793;52.690;6.812;2022-10-18T15:58:37;6.15;;;0.93;;
52918;SDS011;38793;52.690;6.812;2022-10-18T16:01:06;13.15;;;0.88;;
52918;SDS011;38793;52.690;6.812;2022-10-18T16:06:08;7.63;;;0.98;;
52918;SDS011;38793;52.690;6.812;2022-10-18T16:08:37;10.75;;;0.70;;
52918;SDS011;38793;52.690;6.812;2022-10-18T16:11:13;6.00;;;0.60;;
52918;SDS011;38793;52.690;6.812;2022-10-18T16:13:41;6.55;;;0.93;;
52918;SDS011;38793;52.690;6.812;2022-10-18T16:18:40;5.72;;;1.23;;
52918;SDS011;38793;52.690;6.812;2022-10-18T16:21:11;12.85;;;0.77;;
52918;SDS011;38793;52.690;6.812;2022-10-18T16:23:51;5.35;;;1.17;;
52918;SDS011;38793;52.690;6.812;2022-10-18T16:26:17;5.47;;;0.68;;
52918;SDS011;38793;52.690;6.812;2022-10-18T16:31:09;12.23;;;1.27;;
52918;SDS011;38793;52.690;6.812;2022-10-18T16:33:40;13.45;;;0.93;;
52918;SDS011;38793;52.690;6.812;2022-10-18T16:36:05;8.25;;;0.70;;
52918;SDS011;38793;52.690;6.812;2022-10-18T16:38:32;12.07;;;1.10;;
52918;SDS011;38793;52.690;6.812;2022-10-18T16:41:00;7.43;;;0.73;;
52918;SDS011;38793;52.690;6.812;2022-10-18T16:43:30;7.57;;;0.98;;
52918;SDS011;38793;52.690;6.812;2022-10-18T16:45:56;7.50;;;1.48;;
52918;SDS011;38793;52.690;6.812;2022-10-18T16:48:23;8.27;;;1.17;;
52918;SDS011;38793;52.690;6.812;2022-10-18T16:50:49;7.30;;;1.38;;
52918;SDS011;38793;52.690;6.812;2022-10-18T16:53:16;9.80;;;1.33;;